Kouyou — JD3890 — position and weather

sailwx.info

Track history (hours):
 
Tides and Currents Weather Stations Pressure Air Temp Water Temp Dewpoint Dewpoint Depression Visibility Wind Speed Wind Dir Waves Ship Positions

Kouyou

Last reported at 2017-Dec-11 08:44 UTC. Time now 2017-Dec-12 19:57 UTC.
Position N 41°48' E 141°16'.

Length 83 m; draft 4.6 m.

Type: Ship. MMSI: 431006632.

Date/timePositionNaut miles runAvg speedWind from/ knotsBaromVisibWave heightAir tempDewpointWater temp
2017-Dec-11 08:44N 41°48' E 141°16'311.5
2017-Dec-11 08:30N 41°45' E 141°18'811.4
2017-Dec-11 07:50N 41°39' E 141°22'512.1
2017-Dec-11 07:27N 41°34' E 141°25'  
2017-Dec-08 20:18N 34°59' E 140°08'510.7
2017-Dec-08 19:50N 34°56' E 140°03'410.8
2017-Dec-08 19:28N 34°54' E 139°59'610.8
2017-Dec-08 18:52N 34°51' E 139°52'611.6
2017-Dec-08 18:22N 34°50' E 139°45'612.2
2017-Dec-08 17:52N 34°50' E 139°38'1811.3
2017-Dec-08 16:15N 34°46' E 139°16'812.2
2017-Dec-08 15:37N 34°41' E 139°09'311.5
2017-Dec-08 15:24N 34°39' E 139°06'511.8
2017-Dec-08 14:56N 34°36' E 139°01'511.9
2017-Dec-08 14:30N 34°33' E 138°56'1111.8
2017-Dec-08 13:33N 34°33' E 138°42'112.2
2017-Dec-08 13:29N 34°33' E 138°41'712.7
2017-Dec-08 12:58N 34°33' E 138°33'713.0
2017-Dec-08 12:26N 34°33' E 138°25'512.5
2017-Dec-08 12:01N 34°33' E 138°18'6611.3
2017-Dec-08 06:10N 34°39' E 136°59'312.6
2017-Dec-08 05:56N 34°42' E 136°59'612.8
2017-Dec-08 05:30N 34°47' E 136°57'510.4
2017-Dec-08 05:01N 34°52' E 136°58'0 0.1
2017-Dec-08 04:30N 34°52' E 136°58'0 0.0
2017-Dec-08 03:54N 34°52' E 136°58'0 0.0
2017-Dec-08 03:27N 34°52' E 136°58'0 0.0
2017-Dec-08 03:01N 34°52' E 136°58'0 0.0
2017-Dec-08 02:27N 34°52' E 136°58'0 0.0
2017-Dec-08 02:00N 34°52' E 136°58'0 0.0
2017-Dec-08 01:30N 34°52' E 136°58'0 0.0
2017-Dec-08 01:00N 34°52' E 136°58'0 0.0
2017-Dec-08 00:30N 34°52' E 136°58'0 0.0
2017-Dec-08 00:00N 34°52' E 136°58'0 0.0
2017-Dec-07 23:30N 34°52' E 136°58'0 0.5
2017-Dec-07 23:00N 34°52' E 136°58'4 7.9
2017-Dec-07 22:29N 34°48' E 136°57'4 7.6
2017-Dec-07 21:54N 34°44' E 136°59'613.6
2017-Dec-07 21:30N 34°38' E 136°59'106 8.8
2017-Dec-07 09:31N 33°55' E 135°02'213.0
2017-Dec-07 09:23N 33°57' E 135°02'512.9
2017-Dec-07 09:00N 34°02' E 135°02'612.5
2017-Dec-07 08:31N 34°08' E 135°04'4 7.0
2017-Dec-07 08:00N 34°10' E 135°08'0 0.0
2017-Dec-07 07:28N 34°10' E 135°08'0 0.1
2017-Dec-07 07:01N 34°10' E 135°08'611.4
2017-Dec-07 06:31N 34°07' E 135°02'713.1
2017-Dec-07 06:00N 34°06' E 134°54'713.2
2017-Dec-07 05:31N 34°03' E 134°47'713.2
2017-Dec-07 05:00N 34°01' E 134°39'2 1.2
2017-Dec-07 03:08N 34°01' E 134°36'0 0.1
2017-Dec-07 03:00N 34°01' E 134°36'4 7.4
2017-Dec-07 02:30N 34°02' E 134°41'1 1.2
2017-Dec-07 02:00N 34°02' E 134°40'3 6.7
2017-Dec-07 01:30N 34°01' E 134°36'0 0.0
2017-Dec-07 00:54N 34°01' E 134°36'0 0.0
2017-Dec-07 00:18N 34°01' E 134°36'0 0.0
2017-Dec-06 23:48N 34°01' E 134°36'0 0.0
2017-Dec-06 23:24N 34°01' E 134°36'0 0.0
2017-Dec-06 22:54N 34°01' E 134°36'0 0.0
2017-Dec-06 22:18N 34°01' E 134°36'0 0.0
2017-Dec-06 22:00N 34°01' E 134°36'0 0.0
2017-Dec-06 21:06N 34°01' E 134°36'0 0.0
2017-Dec-06 21:00N 34°01' E 134°36'  
2017-Dec-04 10:24N 34°01' E 134°36'0 0.0
2017-Dec-04 10:00N 34°01' E 134°36'0 0.0
2017-Dec-04 09:30N 34°01' E 134°36'0 0.0
2017-Dec-04 08:54N 34°01' E 134°36'0 0.0
2017-Dec-04 07:30N 34°01' E 134°36'0 0.0
2017-Dec-04 07:00N 34°01' E 134°36'0 0.0
2017-Dec-04 06:30N 34°01' E 134°36'0 0.0
2017-Dec-04 06:00N 34°01' E 134°36'0 0.0
2017-Dec-04 05:30N 34°01' E 134°36'0 0.0
2017-Dec-04 04:42N 34°01' E 134°36'0 0.0
2017-Dec-04 02:12N 34°01' E 134°36'0 0.0
2017-Dec-04 01:59N 34°01' E 134°36'0 0.0
2017-Dec-04 01:30N 34°01' E 134°36'0 0.0
2017-Dec-04 00:54N 34°01' E 134°36'0 0.0
2017-Dec-04 00:18N 34°01' E 134°36'0 0.0
2017-Dec-04 00:00N 34°01' E 134°36'0 0.0
2017-Dec-03 23:24N 34°01' E 134°36'0 0.0
2017-Dec-03 22:54N 34°01' E 134°36'0 0.0
2017-Dec-03 22:30N 34°01' E 134°36'0 0.0
2017-Dec-03 22:00N 34°01' E 134°36'0 0.0
2017-Dec-03 21:30N 34°01' E 134°36'0 0.0
2017-Dec-03 21:00N 34°01' E 134°36'0 0.0
2017-Dec-03 20:29N 34°01' E 134°36'0 0.0
2017-Dec-03 20:00N 34°01' E 134°36'0 0.0
2017-Dec-03 19:30N 34°01' E 134°36'0 0.0
2017-Dec-03 18:54N 34°01' E 134°36'0 0.0
2017-Dec-03 18:30N 34°01' E 134°36'0 0.0
2017-Dec-03 18:00N 34°01' E 134°36'0 0.0
2017-Dec-03 17:29N 34°01' E 134°36'0 0.0
2017-Dec-03 16:59N 34°01' E 134°36'0 0.0
2017-Dec-03 16:30N 34°01' E 134°36'0 0.0
2017-Dec-03 16:00N 34°01' E 134°36'0 0.0
2017-Dec-03 15:29N 34°01' E 134°36'0 0.0
2017-Dec-03 14:59N 34°01' E 134°36'0 0.0
2017-Dec-03 14:27N 34°01' E 134°36'0 0.0
2017-Dec-03 13:59N 34°01' E 134°36'0 0.0
2017-Dec-03 13:08N 34°01' E 134°36'0 0.0
2017-Dec-03 12:59N 34°01' E 134°36'0 0.0
2017-Dec-03 12:29N 34°01' E 134°36'0 0.0
2017-Dec-03 11:59N 34°01' E 134°36'0 0.0
2017-Dec-03 11:23N 34°01' E 134°36'0 0.0
2017-Dec-03 10:47N 34°01' E 134°36'0 0.0
2017-Dec-03 10:23N 34°01' E 134°36'0 0.0
2017-Dec-03 09:59N 34°01' E 134°36'0 0.0
2017-Dec-03 09:30N 34°01' E 134°36'0 0.0
2017-Dec-03 08:59N 34°01' E 134°36'0 0.0
2017-Dec-03 08:29N 34°01' E 134°36'0 0.0
2017-Dec-03 07:59N 34°01' E 134°36'0 0.0
2017-Dec-03 07:30N 34°01' E 134°36'0 0.0
2017-Dec-03 06:53N 34°01' E 134°36'0 0.0
2017-Dec-03 06:29N 34°01' E 134°36'0 0.0
2017-Dec-03 05:59N 34°01' E 134°36'0 0.0
2017-Dec-03 05:29N 34°01' E 134°36'0 0.0
2017-Dec-03 04:59N 34°01' E 134°36'0 0.0
2017-Dec-03 04:23N 34°01' E 134°36'0 0.0
2017-Dec-03 03:59N 34°01' E 134°36'0 0.0
2017-Dec-03 03:29N 34°01' E 134°36'0 0.0
2017-Dec-03 03:00N 34°01' E 134°36'0 0.0
2017-Dec-03 02:29N 34°01' E 134°36'0 0.0
2017-Dec-03 01:59N 34°01' E 134°36'0 0.0
2017-Dec-03 01:29N 34°01' E 134°36'0 0.0
2017-Dec-03 00:59N 34°01' E 134°36'0 0.0
2017-Dec-03 00:29N 34°01' E 134°36'0 0.0
2017-Dec-02 23:59N 34°01' E 134°36'0 0.0
2017-Dec-02 23:23N 34°01' E 134°36'0 0.7
2017-Dec-02 23:00N 34°01' E 134°36'0 0.0
2017-Dec-02 00:35N 34°01' E 134°35'0 0.5
2017-Dec-02 00:29N 34°01' E 134°36'4 7.8
2017-Dec-01 23:57N 34°03' E 134°39'912.9
2017-Dec-01 23:15N 34°12' E 134°40'513.1
2017-Dec-01 22:51N 34°17' E 134°38'513.7
2017-Dec-01 22:30N 34°22' E 134°37'713.5
2017-Dec-01 22:01N 34°29' E 134°37'713.4
2017-Dec-01 21:30N 34°36' E 134°37'713.2
2017-Dec-01 21:00N 34°42' E 134°37'1 1.5
2017-Dec-01 20:30N 34°43' E 134°37'0 0.0
2017-Dec-01 19:48N 34°43' E 134°37'0 0.2
2017-Dec-01 19:30N 34°43' E 134°36'0 0.1
2017-Dec-01 19:00N 34°43' E 134°37'0 0.0
2017-Dec-01 18:30N 34°43' E 134°37'0 0.0
2017-Dec-01 17:54N 34°43' E 134°37'0 0.0
2017-Dec-01 17:30N 34°43' E 134°37'0 0.0
2017-Dec-01 16:18N 34°43' E 134°37'0 0.0
2017-Dec-01 15:48N 34°43' E 134°37'0 0.0
2017-Dec-01 15:06N 34°43' E 134°37'0 0.0
2017-Dec-01 14:42N 34°43' E 134°37'0 0.0
2017-Dec-01 14:30N 34°43' E 134°37'0 0.0
2017-Dec-01 14:00N 34°43' E 134°37'0 0.0
2017-Dec-01 12:48N 34°43' E 134°37'0 0.0
2017-Dec-01 12:00N 34°43' E 134°37'4 7.9
2017-Dec-01 11:30N 34°47' E 134°38'  
Track history (hours):
 
Tides and Currents Weather Stations Pressure Air Temp Water Temp Dewpoint Dewpoint Depression Visibility Wind Speed Wind Dir Waves Ship Positions

Kouyou

Last reported at 2017-Dec-11 08:44 UTC. Time now 2017-Dec-12 19:57 UTC.
Position N 41°48' E 141°16'.

Length 83 m; draft 4.6 m.

Type: Ship. MMSI: 431006632.

Date/timePositionNaut miles runAvg speedWind from/ knotsBaromVisibWave heightAir tempDewpointWater temp
2017-Dec-11 08:44N 41°48' E 141°16'311.5
2017-Dec-11 08:30N 41°45' E 141°18'811.4
2017-Dec-11 07:50N 41°39' E 141°22'512.1
2017-Dec-11 07:27N 41°34' E 141°25'  
2017-Dec-08 20:18N 34°59' E 140°08'510.7
2017-Dec-08 19:50N 34°56' E 140°03'410.8
2017-Dec-08 19:28N 34°54' E 139°59'610.8
2017-Dec-08 18:52N 34°51' E 139°52'611.6
2017-Dec-08 18:22N 34°50' E 139°45'612.2
2017-Dec-08 17:52N 34°50' E 139°38'1811.3
2017-Dec-08 16:15N 34°46' E 139°16'812.2
2017-Dec-08 15:37N 34°41' E 139°09'311.5
2017-Dec-08 15:24N 34°39' E 139°06'511.8
2017-Dec-08 14:56N 34°36' E 139°01'511.9
2017-Dec-08 14:30N 34°33' E 138°56'1111.8
2017-Dec-08 13:33N 34°33' E 138°42'112.2
2017-Dec-08 13:29N 34°33' E 138°41'712.7
2017-Dec-08 12:58N 34°33' E 138°33'713.0
2017-Dec-08 12:26N 34°33' E 138°25'512.5
2017-Dec-08 12:01N 34°33' E 138°18'6611.3
2017-Dec-08 06:10N 34°39' E 136°59'312.6
2017-Dec-08 05:56N 34°42' E 136°59'612.8
2017-Dec-08 05:30N 34°47' E 136°57'510.4
2017-Dec-08 05:01N 34°52' E 136°58'0 0.1
2017-Dec-08 04:30N 34°52' E 136°58'0 0.0
2017-Dec-08 03:54N 34°52' E 136°58'0 0.0
2017-Dec-08 03:27N 34°52' E 136°58'0 0.0
2017-Dec-08 03:01N 34°52' E 136°58'0 0.0
2017-Dec-08 02:27N 34°52' E 136°58'0 0.0
2017-Dec-08 02:00N 34°52' E 136°58'0 0.0
2017-Dec-08 01:30N 34°52' E 136°58'0 0.0
2017-Dec-08 01:00N 34°52' E 136°58'0 0.0
2017-Dec-08 00:30N 34°52' E 136°58'0 0.0
2017-Dec-08 00:00N 34°52' E 136°58'0 0.0
2017-Dec-07 23:30N 34°52' E 136°58'0 0.5
2017-Dec-07 23:00N 34°52' E 136°58'4 7.9
2017-Dec-07 22:29N 34°48' E 136°57'4 7.6
2017-Dec-07 21:54N 34°44' E 136°59'613.6
2017-Dec-07 21:30N 34°38' E 136°59'106 8.8
2017-Dec-07 09:31N 33°55' E 135°02'213.0
2017-Dec-07 09:23N 33°57' E 135°02'512.9
2017-Dec-07 09:00N 34°02' E 135°02'612.5
2017-Dec-07 08:31N 34°08' E 135°04'4 7.0
2017-Dec-07 08:00N 34°10' E 135°08'0 0.0
2017-Dec-07 07:28N 34°10' E 135°08'0 0.1
2017-Dec-07 07:01N 34°10' E 135°08'611.4
2017-Dec-07 06:31N 34°07' E 135°02'713.1
2017-Dec-07 06:00N 34°06' E 134°54'713.2
2017-Dec-07 05:31N 34°03' E 134°47'713.2
2017-Dec-07 05:00N 34°01' E 134°39'2 1.2
2017-Dec-07 03:08N 34°01' E 134°36'0 0.1
2017-Dec-07 03:00N 34°01' E 134°36'4 7.4
2017-Dec-07 02:30N 34°02' E 134°41'1 1.2
2017-Dec-07 02:00N 34°02' E 134°40'3 6.7
2017-Dec-07 01:30N 34°01' E 134°36'0 0.0
2017-Dec-07 00:54N 34°01' E 134°36'0 0.0
2017-Dec-07 00:18N 34°01' E 134°36'0 0.0
2017-Dec-06 23:48N 34°01' E 134°36'0 0.0
2017-Dec-06 23:24N 34°01' E 134°36'0 0.0
2017-Dec-06 22:54N 34°01' E 134°36'0 0.0
2017-Dec-06 22:18N 34°01' E 134°36'0 0.0
2017-Dec-06 22:00N 34°01' E 134°36'0 0.0
2017-Dec-06 21:06N 34°01' E 134°36'0 0.0
2017-Dec-06 21:00N 34°01' E 134°36'  
2017-Dec-04 10:24N 34°01' E 134°36'0 0.0
2017-Dec-04 10:00N 34°01' E 134°36'0 0.0
2017-Dec-04 09:30N 34°01' E 134°36'0 0.0
2017-Dec-04 08:54N 34°01' E 134°36'0 0.0
2017-Dec-04 07:30N 34°01' E 134°36'0 0.0
2017-Dec-04 07:00N 34°01' E 134°36'0 0.0
2017-Dec-04 06:30N 34°01' E 134°36'0 0.0
2017-Dec-04 06:00N 34°01' E 134°36'0 0.0
2017-Dec-04 05:30N 34°01' E 134°36'0 0.0
2017-Dec-04 04:42N 34°01' E 134°36'0 0.0
2017-Dec-04 02:12N 34°01' E 134°36'0 0.0
2017-Dec-04 01:59N 34°01' E 134°36'0 0.0
2017-Dec-04 01:30N 34°01' E 134°36'0 0.0
2017-Dec-04 00:54N 34°01' E 134°36'0 0.0
2017-Dec-04 00:18N 34°01' E 134°36'0 0.0
2017-Dec-04 00:00N 34°01' E 134°36'0 0.0
2017-Dec-03 23:24N 34°01' E 134°36'0 0.0
2017-Dec-03 22:54N 34°01' E 134°36'0 0.0
2017-Dec-03 22:30N 34°01' E 134°36'0 0.0
2017-Dec-03 22:00N 34°01' E 134°36'0 0.0
2017-Dec-03 21:30N 34°01' E 134°36'0 0.0
2017-Dec-03 21:00N 34°01' E 134°36'0 0.0
2017-Dec-03 20:29N 34°01' E 134°36'0 0.0
2017-Dec-03 20:00N 34°01' E 134°36'0 0.0
2017-Dec-03 19:30N 34°01' E 134°36'0 0.0
2017-Dec-03 18:54N 34°01' E 134°36'0 0.0
2017-Dec-03 18:30N 34°01' E 134°36'0 0.0
2017-Dec-03 18:00N 34°01' E 134°36'0 0.0
2017-Dec-03 17:29N 34°01' E 134°36'0 0.0
2017-Dec-03 16:59N 34°01' E 134°36'0 0.0
2017-Dec-03 16:30N 34°01' E 134°36'0 0.0
2017-Dec-03 16:00N 34°01' E 134°36'0 0.0
2017-Dec-03 15:29N 34°01' E 134°36'0 0.0
2017-Dec-03 14:59N 34°01' E 134°36'0 0.0
2017-Dec-03 14:27N 34°01' E 134°36'0 0.0
2017-Dec-03 13:59N 34°01' E 134°36'0 0.0
2017-Dec-03 13:08N 34°01' E 134°36'0 0.0
2017-Dec-03 12:59N 34°01' E 134°36'0 0.0
2017-Dec-03 12:29N 34°01' E 134°36'0 0.0
2017-Dec-03 11:59N 34°01' E 134°36'0 0.0
2017-Dec-03 11:23N 34°01' E 134°36'0 0.0
2017-Dec-03 10:47N 34°01' E 134°36'0 0.0
2017-Dec-03 10:23N 34°01' E 134°36'0 0.0
2017-Dec-03 09:59N 34°01' E 134°36'0 0.0
2017-Dec-03 09:30N 34°01' E 134°36'0 0.0
2017-Dec-03 08:59N 34°01' E 134°36'0 0.0
2017-Dec-03 08:29N 34°01' E 134°36'0 0.0
2017-Dec-03 07:59N 34°01' E 134°36'0 0.0
2017-Dec-03 07:30N 34°01' E 134°36'0 0.0
2017-Dec-03 06:53N 34°01' E 134°36'0 0.0
2017-Dec-03 06:29N 34°01' E 134°36'0 0.0
2017-Dec-03 05:59N 34°01' E 134°36'0 0.0
2017-Dec-03 05:29N 34°01' E 134°36'0 0.0
2017-Dec-03 04:59N 34°01' E 134°36'0 0.0
2017-Dec-03 04:23N 34°01' E 134°36'0 0.0
2017-Dec-03 03:59N 34°01' E 134°36'0 0.0
2017-Dec-03 03:29N 34°01' E 134°36'0 0.0
2017-Dec-03 03:00N 34°01' E 134°36'0 0.0
2017-Dec-03 02:29N 34°01' E 134°36'0 0.0
2017-Dec-03 01:59N 34°01' E 134°36'0 0.0
2017-Dec-03 01:29N 34°01' E 134°36'0 0.0
2017-Dec-03 00:59N 34°01' E 134°36'0 0.0
2017-Dec-03 00:29N 34°01' E 134°36'0 0.0
2017-Dec-02 23:59N 34°01' E 134°36'0 0.0
2017-Dec-02 23:23N 34°01' E 134°36'0 0.7
2017-Dec-02 23:00N 34°01' E 134°36'0 0.0
2017-Dec-02 00:35N 34°01' E 134°35'0 0.5
2017-Dec-02 00:29N 34°01' E 134°36'4 7.8
2017-Dec-01 23:57N 34°03' E 134°39'912.9
2017-Dec-01 23:15N 34°12' E 134°40'513.1
2017-Dec-01 22:51N 34°17' E 134°38'513.7
2017-Dec-01 22:30N 34°22' E 134°37'713.5
2017-Dec-01 22:01N 34°29' E 134°37'713.4
2017-Dec-01 21:30N 34°36' E 134°37'713.2
2017-Dec-01 21:00N 34°42' E 134°37'1 1.5
2017-Dec-01 20:30N 34°43' E 134°37'0 0.0
2017-Dec-01 19:48N 34°43' E 134°37'0 0.2
2017-Dec-01 19:30N 34°43' E 134°36'0 0.1
2017-Dec-01 19:00N 34°43' E 134°37'0 0.0
2017-Dec-01 18:30N 34°43' E 134°37'0 0.0
2017-Dec-01 17:54N 34°43' E 134°37'0 0.0
2017-Dec-01 17:30N 34°43' E 134°37'0 0.0
2017-Dec-01 16:18N 34°43' E 134°37'0 0.0
2017-Dec-01 15:48N 34°43' E 134°37'0 0.0
2017-Dec-01 15:06N 34°43' E 134°37'0 0.0
2017-Dec-01 14:42N 34°43' E 134°37'0 0.0
2017-Dec-01 14:30N 34°43' E 134°37'0 0.0
2017-Dec-01 14:00N 34°43' E 134°37'0 0.0
2017-Dec-01 12:48N 34°43' E 134°37'0 0.0
2017-Dec-01 12:00N 34°43' E 134°37'4 7.9
2017-Dec-01 11:30N 34°47' E 134°38'  

Dump ship's entire track history